Altus, Oklahoma
Current Conditions -  °F | °C
As of 6:58 PM on Thursday 27 Nov 2014 (Local Time) from KLTS Reporting Station
Clear Clear  
Wind Chill:   Ceiling: Unl
Heat Index:   Visibility: 10mi
Dew Point:   Wind: 7mph
Humidity: 75%   Direction: 140°SE
Pressure: 30.32"   Gusts: NA
Location:  34.64°N, 99.33°W
Report Text: KLTS 280058Z AUTO 14006KT 10SM CLR 04/00 A3032 RMK AO2 SLP277 T00410001 $
Loading
Personal Weather Stations






























Interactive Weather Map New forecast layout! Learn more

10-Day Weather Forecast

Advertisements
Track Severe Weather on mobile